Time;durP1;ratioP1;P1;durP2;ratioP2;P2;SDS_P1;SDS_P2;PMS_P1;PMS_P2;Temp;Humidity;BMP_temperature;BMP_pressure;BME280_temperature;BME280_humidity;BME280_pressure;Samples;Min_cycle;Max_cycle;Signal;HPM_P1;HPM_P2
2021/06/05 04:02:00;;;;;;;3.47;2.17;;;19.00;99.90;;;;;;5255803;23;20490;-63
2021/06/05 04:04:26;;;;;;;1.70;1.60;;;19.00;99.90;;;;;;4976931;28;20454;-63
2021/06/05 04:06:52;;;;;;;3.43;2.10;;;18.90;99.90;;;;;;4976889;28;20448;-64
2021/06/05 04:09:18;;;;;;;2.97;2.43;;;18.90;99.90;;;;;;4976913;28;20545;-63
2021/06/05 04:11:45;;;;;;;1.90;1.80;;;18.90;99.90;;;;;;4976361;28;20980;-64
2021/06/05 04:14:11;;;;;;;2.90;1.77;;;18.90;99.90;;;;;;4976791;28;20439;-63
2021/06/05 04:16:37;;;;;;;3.30;1.70;;;19.00;99.90;;;;;;4976637;28;20593;-64
2021/06/05 04:19:05;;;;;;;4.00;1.90;;;19.00;99.90;;;;;;4976723;28;20517;-63
2021/06/05 04:21:31;;;;;;;2.00;1.90;;;19.00;99.90;;;;;;4976483;28;20481;-64
2021/06/05 04:23:57;;;;;;;2.03;1.67;;;19.00;99.90;;;;;;4976485;28;20486;-62
2021/06/05 04:26:25;;;;;;;2.40;2.20;;;19.00;99.90;;;;;;4976640;28;20465;-63
2021/06/05 04:28:51;;;;;;;2.17;1.90;;;19.00;99.90;;;;;;4976551;28;20458;-64
2021/06/05 04:31:18;;;;;;;2.00;1.90;;;19.10;99.90;;;;;;4977079;28;20819;-63
2021/06/05 04:33:44;;;;;;;1.77;1.60;;;19.10;99.90;;;;;;4976242;28;20439;-63
2021/06/05 04:36:14;;;;;;;1.70;1.60;;;19.10;99.90;;;;;;4976376;28;20461;-65
2021/06/05 04:38:41;;;;;;;2.57;2.13;;;19.10;99.90;;;;;;4976492;28;20446;-64
2021/06/05 04:41:10;;;;;;;1.53;1.53;;;19.10;99.90;;;;;;4976450;28;20474;-64
2021/06/05 04:43:38;;;;;;;2.27;2.17;;;19.10;99.90;;;;;;4976084;28;20459;-64
2021/06/05 04:46:04;;;;;;;2.83;2.20;;;19.10;99.90;;;;;;4976148;28;20450;-64
2021/06/05 04:48:31;;;;;;;2.10;2.00;;;19.10;99.90;;;;;;4976223;28;20455;-64
2021/06/05 04:50:57;;;;;;;2.67;2.47;;;19.10;99.90;;;;;;4975910;28;20467;-65
2021/06/05 04:53:25;;;;;;;2.80;2.30;;;19.20;99.90;;;;;;4975730;28;20945;-64
2021/06/05 04:55:52;;;;;;;3.13;2.90;;;19.30;99.90;;;;;;4975435;28;20960;-64
2021/06/05 04:58:19;;;;;;;2.70;2.50;;;19.30;99.90;;;;;;4976000;28;20477;-64
2021/06/05 05:00:47;;;;;;;2.73;2.53;;;19.30;99.90;;;;;;4975636;28;20482;-64
2021/06/05 05:03:17;;;;;;;2.40;2.30;;;19.30;99.90;;;;;;4975634;28;20447;-64
2021/06/05 05:05:45;;;;;;;3.37;2.77;;;19.40;99.90;;;;;;4975824;28;20443;-64
2021/06/05 05:08:14;;;;;;;3.27;3.10;;;19.40;99.90;;;;;;4976171;28;20455;-64
2021/06/05 05:10:44;;;;;;;4.00;2.80;;;19.40;99.90;;;;;;4976500;28;20965;-64
2021/06/05 05:13:13;;;;;;;6.20;2.70;;;19.30;99.90;;;;;;4975780;28;20458;-64
2021/06/05 05:15:39;;;;;;;2.83;2.47;;;19.20;99.90;;;;;;4975919;28;20512;-64
2021/06/05 05:18:05;;;;;;;2.87;2.67;;;19.20;99.90;;;;;;4975547;28;20419;-64
2021/06/05 05:20:34;;;;;;;10.70;3.00;;;19.30;99.90;;;;;;4975469;28;20493;-64
2021/06/05 05:23:01;;;;;;;3.00;2.83;;;19.40;99.90;;;;;;4975368;28;20459;-64
2021/06/05 05:25:28;;;;;;;6.80;3.23;;;19.30;99.90;;;;;;4976044;28;21012;-64
2021/06/05 05:27:56;;;;;;;3.10;2.80;;;19.40;99.90;;;;;;4976291;28;20454;-65
2021/06/05 05:30:27;;;;;;;3.23;3.03;;;19.40;99.90;;;;;;4975846;28;20941;-64
2021/06/05 05:32:54;;;;;;;3.63;3.10;;;19.40;99.90;;;;;;4975473;28;20446;-64
2021/06/05 05:35:20;;;;;;;4.77;2.83;;;19.40;99.90;;;;;;4975498;28;20455;-64
2021/06/05 05:37:46;;;;;;;3.40;3.10;;;19.40;99.90;;;;;;4975176;28;20454;-65
2021/06/05 05:40:14;;;;;;;3.67;2.80;;;19.40;99.90;;;;;;4975524;28;20489;-63
2021/06/05 05:42:40;;;;;;;3.47;3.20;;;19.40;99.90;;;;;;4975206;28;20458;-63
2021/06/05 05:45:10;;;;;;;4.50;2.97;;;19.50;99.90;;;;;;4975923;28;20462;-64
2021/06/05 05:47:36;;;;;;;2.70;2.60;;;19.40;99.90;;;;;;4975739;28;20454;-64
2021/06/05 05:50:04;;;;;;;3.50;3.30;;;19.40;99.90;;;;;;4975888;28;20457;-63
2021/06/05 05:52:30;;;;;;;3.33;3.03;;;19.40;99.90;;;;;;4974977;28;20475;-63
2021/06/05 05:54:56;;;;;;;4.83;3.50;;;19.50;99.90;;;;;;4975053;28;20513;-64
2021/06/05 05:57:22;;;;;;;3.20;3.00;;;19.70;99.90;;;;;;4975236;28;20458;-63
2021/06/05 05:59:49;;;;;;;3.03;2.70;;;19.90;99.90;;;;;;4976961;28;20577;-63
2021/06/05 06:02:16;;;;;;;2.63;2.43;;;20.00;99.90;;;;;;4980734;28;20485;-63
2021/06/05 06:04:42;;;;;;;3.40;2.50;;;20.30;99.90;;;;;;4979430;28;20454;-63
2021/06/05 06:07:09;;;;;;;2.60;2.40;;;20.40;99.90;;;;;;4978970;28;20513;-63
2021/06/05 06:09:35;;;;;;;2.40;2.30;;;20.30;99.90;;;;;;4978668;28;20496;-63
2021/06/05 06:12:01;;;;;;;2.63;2.43;;;20.50;99.90;;;;;;4978653;28;20557;-63
2021/06/05 06:14:27;;;;;;;4.57;3.07;;;20.70;99.90;;;;;;4978931;28;20446;-63
2021/06/05 06:16:54;;;;;;;4.30;2.43;;;20.90;99.90;;;;;;4981070;28;20458;-63
2021/06/05 06:19:22;;;;;;;3.77;2.13;;;20.80;99.90;;;;;;4980762;28;20524;-64
2021/06/05 06:21:48;;;;;;;3.40;2.20;;;21.00;99.90;;;;;;4979218;28;20481;-64
2021/06/05 06:24:15;;;;;;;3.13;2.53;;;21.00;99.90;;;;;;4979344;28;20450;-64
2021/06/05 06:26:41;;;;;;;3.20;2.40;;;21.20;99.90;;;;;;4978626;28;20454;-62
2021/06/05 06:29:12;;;;;;;2.30;2.20;;;21.30;99.90;;;;;;4979075;28;20505;-63
2021/06/05 06:31:39;;;;;;;2.23;2.13;;;21.60;99.90;;;;;;4979912;28;20480;-65
2021/06/05 06:34:05;;;;;;;2.10;1.90;;;21.80;99.90;;;;;;4978806;28;20458;-65
2021/06/05 06:36:33;;;;;;;2.17;1.87;;;21.80;99.90;;;;;;4978483;28;20469;-64
2021/06/05 06:38:59;;;;;;;4.23;2.13;;;22.10;99.90;;;;;;4978669;28;20502;-63
2021/06/05 06:41:28;;;;;;;2.40;2.20;;;22.40;99.90;;;;;;4979564;28;20834;-63
2021/06/05 06:43:55;;;;;;;2.07;1.93;;;22.70;99.90;;;;;;4978779;28;20455;-64
2021/06/05 06:46:25;;;;;;;1.80;1.70;;;23.00;99.90;;;;;;4978643;28;20454;-64
2021/06/05 06:48:52;;;;;;;1.80;1.70;;;23.10;99.90;;;;;;4978240;28;20775;-64
2021/06/05 06:51:19;;;;;;;2.80;1.60;;;23.30;99.90;;;;;;4978762;28;20482;-64
2021/06/05 06:53:47;;;;;;;1.90;1.80;;;23.50;99.90;;;;;;4979641;28;20817;-65
2021/06/05 06:56:14;;;;;;;1.60;1.60;;;23.70;99.90;;;;;;4978274;28;20454;-65
2021/06/05 06:58:40;;;;;;;1.70;1.60;;;23.90;99.90;;;;;;4977901;28;20458;-65
2021/06/05 07:01:07;;;;;;;1.90;1.50;;;24.30;99.90;;;;;;4977655;28;20482;-65
2021/06/05 07:03:33;;;;;;;2.67;2.00;;;25.00;99.90;;;;;;4977636;28;20459;-64
2021/06/05 07:06:00;;;;;;;1.80;1.70;;;25.40;99.90;;;;;;4978012;28;20459;-65
2021/06/05 07:08:30;;;;;;;1.90;1.80;;;25.90;99.90;;;;;;4977883;28;20462;-63
2021/06/05 07:11:01;;;;;;;1.90;1.80;;;26.10;99.90;;;;;;4976741;28;20471;-63
2021/06/05 07:13:28;;;;;;;2.27;1.70;;;26.90;99.90;;;;;;4977904;28;20442;-62
2021/06/05 07:15:56;;;;;;;1.67;1.57;;;27.60;99.90;;;;;;4977852;28;20461;-63
2021/06/05 07:18:24;;;;;;;1.73;1.63;;;28.20;99.90;;;;;;4977943;28;20439;-63
2021/06/05 07:20:51;;;;;;;2.07;1.97;;;28.70;99.90;;;;;;4977383;28;20486;-63
2021/06/05 07:23:19;;;;;;;2.20;1.77;;;28.90;99.90;;;;;;4977528;28;20474;-62
2021/06/05 07:25:45;;;;;;;1.70;1.60;;;28.80;99.90;;;;;;4977766;28;20454;-63
2021/06/05 07:28:22;;;;;;;2.00;1.57;;;28.60;99.90;;;;;;4977368;28;20457;-64
2021/06/05 07:30:50;;;;;;;2.10;1.63;;;28.70;99.90;;;;;;4976917;28;20474;-63
2021/06/05 07:33:17;;;;;;;2.10;1.90;;;28.90;99.90;;;;;;4977261;28;20820;-63
2021/06/05 07:35:43;;;;;;;1.87;1.77;;;28.90;99.90;;;;;;4977557;28;20443;-64
2021/06/05 07:38:12;;;;;;;2.93;1.67;;;29.00;99.90;;;;;;4977265;28;20482;-65
2021/06/05 07:40:39;;;;;;;2.20;2.10;;;28.60;99.90;;;;;;4978668;28;20490;-64
2021/06/05 07:43:06;;;;;;;3.63;2.03;;;28.70;99.90;;;;;;4977673;28;20513;-64
2021/06/05 07:45:33;;;;;;;2.33;2.07;;;28.50;99.90;;;;;;4977307;28;20439;-64
2021/06/05 07:48:00;;;;;;;4.00;2.30;;;28.20;99.90;;;;;;4976992;28;20446;-64
2021/06/05 07:50:27;;;;;;;2.00;1.90;;;28.10;99.90;;;;;;4976690;28;20853;-64
2021/06/05 07:52:53;;;;;;;2.27;2.10;;;27.80;99.90;;;;;;4976950;28;20455;-64
2021/06/05 07:55:20;;;;;;;2.00;1.87;;;27.40;99.90;;;;;;4977828;28;20455;-64
2021/06/05 07:57:46;;;;;;;3.13;2.37;;;27.10;99.90;;;;;;4976983;28;20953;-64
2021/06/05 08:00:16;;;;;;;2.10;2.00;;;26.70;99.90;;;;;;4976807;28;20467;-64
2021/06/05 08:02:43;;;;;;;2.77;2.40;;;26.60;99.90;;;;;;4976605;28;20447;-64
2021/06/05 08:05:11;;;;;;;4.27;2.43;;;26.40;99.90;;;;;;4976684;28;20505;-64
2021/06/05 08:07:37;;;;;;;3.27;2.13;;;26.10;99.90;;;;;;4976775;28;20450;-64
2021/06/05 08:10:06;;;;;;;2.20;2.10;;;25.80;99.90;;;;;;4977293;28;20450;-64
2021/06/05 08:12:32;;;;;;;2.43;2.10;;;25.70;99.90;;;;;;4977369;28;20474;-64
2021/06/05 08:14:59;;;;;;;5.20;2.00;;;25.50;99.90;;;;;;4976546;28;20446;-63
2021/06/05 08:17:25;;;;;;;7.03;2.80;;;25.50;99.90;;;;;;4976547;28;20455;-64
2021/06/05 08:19:53;;;;;;;2.30;2.10;;;25.40;99.90;;;;;;4976474;28;20559;-63
2021/06/05 08:22:23;;;;;;;2.20;2.00;;;25.30;99.90;;;;;;4975894;28;20486;-63
2021/06/05 08:24:49;;;;;;;2.63;2.43;;;25.10;99.90;;;;;;4976552;28;20438;-63
2021/06/05 08:27:17;;;;;;;3.00;1.80;;;25.20;99.90;;;;;;4976429;28;20462;-62
2021/06/05 08:29:43;;;;;;;2.70;2.50;;;25.00;99.90;;;;;;4976126;28;20501;-64
2021/06/05 08:32:09;;;;;;;2.47;2.27;;;24.80;99.90;;;;;;4976144;28;20486;-64
2021/06/05 08:34:36;;;;;;;3.13;2.10;;;24.90;99.90;;;;;;4976208;28;20463;-63
2021/06/05 08:37:04;;;;;;;2.70;2.40;;;24.60;99.90;;;;;;4975971;28;20474;-63
2021/06/05 08:39:31;;;;;;;1.93;1.70;;;24.50;99.90;;;;;;4976157;28;20474;-63
2021/06/05 08:42:00;;;;;;;2.77;2.10;;;24.30;99.90;;;;;;4975746;28;20996;-62
2021/06/05 08:44:34;;;;;;;2.13;1.83;;;24.40;99.90;;;;;;4976339;28;20462;-62
2021/06/05 08:47:05;;;;;;;2.47;2.10;;;24.50;99.90;;;;;;4976677;28;20479;-62
2021/06/05 08:49:35;;;;;;;2.67;2.47;;;24.50;99.90;;;;;;4976169;28;20494;-63
2021/06/05 08:52:07;;;;;;;4.97;2.00;;;24.40;99.90;;;;;;4977403;28;20621;-63
2021/06/05 08:54:48;;;;;;;6.13;2.53;;;24.50;99.90;;;;;;4975953;28;20968;-63
2021/06/05 08:57:25;;;;;;;4.20;3.30;;;24.60;99.90;;;;;;4976002;28;20439;-63
2021/06/05 08:59:52;;;;;;;1.77;1.67;;;24.50;99.90;;;;;;4975727;28;20462;-63
2021/06/05 09:02:22;;;;;;;1.60;1.60;;;24.60;99.90;;;;;;4976392;28;20494;-62
2021/06/05 09:04:48;;;;;;;2.23;1.77;;;24.70;99.90;;;;;;4975993;28;20458;-63
2021/06/05 09:07:16;;;;;;;2.63;1.87;;;24.60;99.90;;;;;;4976046;28;20455;-63
2021/06/05 09:09:45;;;;;;;1.43;1.33;;;24.60;99.90;;;;;;4976605;28;20450;-64
2021/06/05 09:12:13;;;;;;;1.57;1.57;;;24.60;99.90;;;;;;4976534;28;20478;-63
2021/06/05 09:14:39;;;;;;;1.50;1.40;;;24.60;99.90;;;;;;4976257;28;20486;-63
2021/06/05 09:17:16;;;;;;;5.47;2.03;;;24.70;99.90;;;;;;4975510;28;20454;-63
2021/06/05 09:19:59;;;;;;;1.80;1.53;;;24.90;99.90;;;;;;4976023;28;20467;-64
2021/06/05 09:22:32;;;;;;;1.77;1.67;;;24.80;99.90;;;;;;4981326;28;20845;-65
2021/06/05 09:24:59;;;;;;;2.23;1.77;;;24.80;99.90;;;;;;4978080;28;20466;-64
2021/06/05 09:27:27;;;;;;;2.30;1.80;;;24.90;99.90;;;;;;4981970;28;20916;-64
2021/06/05 09:29:56;;;;;;;1.80;1.70;;;24.90;99.90;;;;;;4976019;28;20846;-63
2021/06/05 09:32:24;;;;;;;1.97;1.87;;;25.00;99.90;;;;;;4976057;28;20475;-64
2021/06/05 09:34:53;;;;;;;1.63;1.53;;;24.80;99.90;;;;;;4977044;28;20461;-63
2021/06/05 09:37:35;;;;;;;4.00;1.47;;;24.90;99.90;;;;;;4979669;28;20494;-63
2021/06/05 09:40:14;;;;;;;1.03;1.03;;;24.90;99.90;;;;;;4978884;28;20463;-64
2021/06/05 09:42:43;;;;;;;1.40;1.30;;;25.00;99.90;;;;;;4981010;28;20549;-64
2021/06/05 09:45:21;;;;;;;1.13;1.13;;;25.00;99.90;;;;;;4981115;28;20812;-64
2021/06/05 09:47:47;;;;;;;2.00;1.47;;;25.20;99.90;;;;;;4977110;28;20493;-64
2021/06/05 09:50:23;;;;;;;2.17;1.97;;;25.00;99.90;;;;;;4975706;28;20450;-64
2021/06/05 09:52:52;;;;;;;1.43;1.33;;;25.10;99.90;;;;;;4975027;28;20485;-64
2021/06/05 09:55:33;;;;;;;1.20;1.10;;;25.30;99.90;;;;;;4976053;28;20455;-64
2021/06/05 09:58:01;;;;;;;2.00;1.20;;;25.50;99.90;;;;;;4977349;28;20439;-63
2021/06/05 10:00:30;;;;;;;1.47;1.37;;;25.40;99.90;;;;;;4974935;28;20952;-64
2021/06/05 10:03:20;;;;;;;1.90;1.10;;;25.30;99.90;;;;;;4980661;28;20463;-63
2021/06/05 10:05:49;;;;;;;1.57;1.47;;;25.50;99.90;;;;;;4983785;28;20442;-64
2021/06/05 10:08:26;;;;;;;5.03;1.53;;;25.60;99.90;;;;;;4981918;28;20465;-64
2021/06/05 10:10:59;;;;;;;2.07;1.77;;;25.80;99.90;;;;;;4977749;28;20470;-64
2021/06/05 10:13:30;;;;;;;1.30;1.30;;;25.80;99.90;;;;;;4975097;28;20925;-64
2021/06/05 10:16:00;;;;;;;1.77;1.67;;;25.80;99.90;;;;;;4975071;28;20450;-64
2021/06/05 10:18:31;;;;;;;4.40;1.10;;;25.60;99.90;;;;;;4975239;28;20467;-64
2021/06/05 10:21:03;;;;;;;3.33;3.13;;;25.50;99.90;;;;;;4975047;28;20487;-63
2021/06/05 10:23:34;;;;;;;1.80;1.80;;;25.60;99.90;;;;;;4975228;28;20450;-63
2021/06/05 10:26:05;;;;;;;2.23;2.03;;;25.50;99.90;;;;;;4975546;28;20447;-64
2021/06/05 10:28:35;;;;;;;1.80;1.60;;;25.60;99.90;;;;;;4975337;28;20438;-63
2021/06/05 10:31:06;;;;;;;2.13;1.67;;;25.70;99.90;;;;;;4975192;28;20471;-63
2021/06/05 10:33:42;;;;;;;1.60;1.50;;;25.70;99.90;;;;;;4975264;28;20505;-64
2021/06/05 10:36:14;;;;;;;2.20;2.10;;;25.90;99.90;;;;;;4975239;28;20443;-63
2021/06/05 10:38:45;;;;;;;2.67;2.00;;;25.80;99.90;;;;;;4974947;28;20443;-63
2021/06/05 10:41:14;;;;;;;2.53;2.03;;;25.70;99.90;;;;;;4974624;28;20993;-63
2021/06/05 10:43:41;;;;;;;3.33;2.00;;;25.70;99.90;;;;;;4974730;28;20454;-63
2021/06/05 10:46:26;;;;;;;1.70;1.60;;;25.90;99.90;;;;;;4976752;28;20949;-63
2021/06/05 10:49:01;;;;;;;1.93;1.60;;;25.90;99.90;;;;;;4979308;28;20489;-63
2021/06/05 10:51:29;;;;;;;2.03;1.93;;;25.80;99.90;;;;;;4978241;28;20474;-62
2021/06/05 10:54:05;;;;;;;2.13;1.90;;;25.70;99.90;;;;;;4978062;28;20466;-63
2021/06/05 10:56:35;;;;;;;2.20;1.30;;;25.80;99.90;;;;;;4978027;28;20438;-62
2021/06/05 10:59:03;;;;;;;1.83;1.73;;;25.80;99.90;;;;;;4977975;28;20439;-63
2021/06/05 11:01:48;;;;;;;4.63;1.70;;;25.80;99.90;;;;;;4977465;28;21059;-63
2021/06/05 11:04:41;;;;;;;1.70;1.60;;;25.50;99.90;;;;;;4977871;28;20532;-64
2021/06/05 11:07:33;;;;;;;5.93;1.73;;;25.30;99.90;;;;;;4977874;28;20461;-63
2021/06/05 11:10:05;;;;;;;2.20;2.10;;;25.30;99.90;;;;;;4978978;28;20501;-64
2021/06/05 11:12:52;;;;;;;1.70;1.70;;;25.30;99.90;;;;;;4978018;28;20478;-65
2021/06/05 11:16:00;;;;;;;1.40;1.40;;;25.20;99.90;;;;;;4977638;28;20458;-63
2021/06/05 11:18:32;;;;;;;1.73;1.73;;;25.20;99.90;;;;;;4977653;28;20817;-64
2021/06/05 11:21:20;;;;;;;1.90;1.80;;;25.20;99.90;;;;;;4977582;28;20486;-64
2021/06/05 11:24:20;;;;;;;2.07;1.97;;;24.90;99.90;;;;;;4977552;28;20454;-64
2021/06/05 11:26:50;;;;;;;4.97;2.30;;;24.90;99.90;;;;;;4978480;28;20506;-65
2021/06/05 11:29:55;;;;;;;10.07;4.70;;;24.70;99.90;;;;;;4978546;28;20446;-62
2021/06/05 11:32:50;;;;;;;3.97;2.87;;;24.40;99.90;;;;;;4979930;28;20980;-64
2021/06/05 11:35:40;;;;;;;4.10;3.27;;;24.10;99.90;;;;;;4978895;28;20439;-62
2021/06/05 11:38:08;;;;;;;6.70;3.93;;;22.80;99.90;;;;;;4977555;28;20449;-62
2021/06/05 11:40:55;;;;;;;11.53;4.30;;;22.30;99.90;;;;;;4977040;28;20486;-63
2021/06/05 11:43:46;;;;;;;8.63;2.87;;;22.00;99.90;;;;;;4976718;28;20455;-62
2021/06/05 11:46:45;;;;;;;5.70;2.93;;;21.90;99.90;;;;;;4977089;28;20439;-62
2021/06/05 11:49:50;;;;;;;3.23;3.03;;;21.80;99.90;;;;;;4977174;28;20435;-63
2021/06/05 11:52:41;;;;;;;3.83;3.50;;;21.60;99.90;;;;;;4977023;28;20922;-62
2021/06/05 11:55:43;;;;;;;4.53;3.13;;;21.40;99.90;;;;;;4977545;28;20439;-63
2021/06/05 11:58:24;;;;;;;3.70;2.20;;;21.40;99.90;;;;;;4976348;28;20435;-63
2021/06/05 12:01:01;;;;;;;2.80;2.53;;;21.50;99.90;;;;;;4976838;28;20540;-62
2021/06/05 12:03:36;;;;;;;3.33;3.20;;;21.60;99.90;;;;;;4977178;28;20553;-62
2021/06/05 12:06:13;;;;;;;2.93;2.70;;;21.90;99.90;;;;;;4978004;28;20438;-63
2021/06/05 12:08:41;;;;;;;2.80;2.60;;;22.30;99.90;;;;;;4976956;28;20461;-62
2021/06/05 12:11:21;;;;;;;3.10;2.80;;;22.50;99.90;;;;;;4976911;28;20496;-62
2021/06/05 12:13:47;;;;;;;2.90;2.70;;;22.40;99.90;;;;;;4977028;28;20831;-62
2021/06/05 12:16:16;;;;;;;2.77;2.67;;;22.60;99.90;;;;;;4978719;28;20443;-62
2021/06/05 12:18:45;;;;;;;2.83;2.60;;;22.50;99.90;;;;;;4976784;28;20467;-61
2021/06/05 12:21:30;;;;;;;3.60;3.30;;;22.70;99.90;;;;;;4976626;28;20537;-63
2021/06/05 12:24:10;;;;;;;4.33;3.13;;;22.80;99.90;;;;;;4976958;28;20450;-62
2021/06/05 12:26:46;;;;;;;3.80;3.07;;;22.80;99.90;;;;;;4976711;28;20449;-62
2021/06/05 12:29:16;;;;;;;3.10;2.90;;;23.00;99.90;;;;;;4976525;28;20442;-62
2021/06/05 12:31:43;;;;;;;3.13;2.93;;;23.30;99.90;;;;;;4976368;28;20471;-63
2021/06/05 12:34:11;;;;;;;3.53;3.23;;;23.80;99.90;;;;;;4976674;28;20443;-63
2021/06/05 12:36:40;;;;;;;3.30;3.10;;;24.00;99.90;;;;;;4976376;28;20439;-64
2021/06/05 12:39:15;;;;;;;3.20;3.00;;;24.10;99.90;;;;;;4976453;28;20442;-62
2021/06/05 12:41:43;;;;;;;2.97;2.77;;;24.40;99.90;;;;;;4976219;28;20491;-63
2021/06/05 12:44:14;;;;;;;3.03;2.80;;;24.50;99.90;;;;;;4976098;28;20454;-63
2021/06/05 12:46:41;;;;;;;3.50;3.20;;;24.50;99.90;;;;;;4977016;28;20462;-63
2021/06/05 12:49:10;;;;;;;2.73;2.50;;;24.10;99.90;;;;;;4976278;28;20454;-62
2021/06/05 12:51:40;;;;;;;5.43;3.00;;;24.10;99.90;;;;;;4976443;28;20483;-62
2021/06/05 12:54:08;;;;;;;5.50;2.93;;;24.10;99.90;;;;;;4976694;28;20447;-63
2021/06/05 12:56:40;;;;;;;3.67;3.47;;;24.10;99.90;;;;;;4975613;28;20808;-63
2021/06/05 12:59:10;;;;;;;3.40;3.20;;;24.00;99.90;;;;;;4975543;28;20890;-63
2021/06/05 13:01:41;;;;;;;6.93;6.43;;;24.00;99.90;;;;;;4975852;28;20482;-64
2021/06/05 13:04:24;;;;;;;4.80;4.40;;;23.80;99.90;;;;;;4975686;28;20454;-64
2021/06/05 13:06:57;;;;;;;2.27;2.17;;;23.90;99.90;;;;;;4976418;28;20445;-64
2021/06/05 13:09:33;;;;;;;2.60;2.40;;;24.00;99.90;;;;;;4974711;28;20453;-63
2021/06/05 13:12:03;;;;;;;2.03;1.90;;;24.20;99.90;;;;;;4975455;28;20493;-64
2021/06/05 13:14:33;;;;;;;2.03;1.90;;;24.30;99.90;;;;;;4975115;28;20450;-63
2021/06/05 13:17:26;;;;;;;2.20;2.10;;;24.30;99.90;;;;;;4975315;28;20440;-64
2021/06/05 13:20:26;;;;;;;2.20;2.10;;;24.30;99.90;;;;;;4975268;28;20469;-64
2021/06/05 13:23:07;;;;;;;2.00;1.90;;;24.30;99.90;;;;;;4976060;28;20494;-62
2021/06/05 13:25:33;;;;;;;2.20;2.10;;;24.20;99.90;;;;;;4977564;28;20535;-62
2021/06/05 13:28:12;;;;;;;2.10;2.00;;;24.20;99.90;;;;;;4976572;28;20458;-65
2021/06/05 13:30:40;;;;;;;2.43;2.23;;;24.00;99.90;;;;;;4975128;28;20478;-64
2021/06/05 13:33:29;;;;;;;1.90;1.80;;;23.80;99.90;;;;;;4975208;28;20506;-64
2021/06/05 13:35:59;;;;;;;3.97;2.80;;;24.20;99.90;;;;;;4975295;28;20498;-64
2021/06/05 13:38:28;;;;;;;4.83;2.13;;;24.20;99.90;;;;;;4975492;28;20457;-63
2021/06/05 13:40:56;;;;;;;2.33;2.23;;;24.10;99.90;;;;;;4975288;28;20859;-63
2021/06/05 13:43:25;;;;;;;2.20;2.10;;;23.90;99.90;;;;;;4974988;28;20458;-63
2021/06/05 13:45:51;;;;;;;2.17;2.07;;;24.10;99.90;;;;;;4975177;28;20459;-63
2021/06/05 13:48:17;;;;;;;4.93;2.93;;;24.00;99.90;;;;;;4974794;28;20909;-64
2021/06/05 13:50:43;;;;;;;2.60;2.40;;;24.00;99.90;;;;;;4974988;28;20475;-63
2021/06/05 13:53:28;;;;;;;3.57;2.27;;;24.00;99.90;;;;;;4974991;28;20454;-64
2021/06/05 13:55:56;;;;;;;2.60;2.40;;;23.80;99.90;;;;;;4974972;28;20963;-63
2021/06/05 13:58:26;;;;;;;2.60;2.40;;;23.70;99.90;;;;;;4974861;28;21023;-63
2021/06/05 14:00:53;;;;;;;2.80;2.60;;;23.60;99.90;;;;;;4974607;28;20482;-62
2021/06/05 14:03:20;;;;;;;3.20;2.80;;;23.40;99.90;;;;;;4975806;28;20458;-63
2021/06/05 14:05:46;;;;;;;2.77;2.57;;;23.20;99.90;;;;;;4975154;28;20455;-62
2021/06/05 14:08:13;;;;;;;2.67;2.50;;;23.20;99.90;;;;;;4974742;28;20466;-63
2021/06/05 14:10:41;;;;;;;3.77;2.50;;;23.10;99.90;;;;;;4975380;28;20478;-62
2021/06/05 14:13:09;;;;;;;8.40;2.60;;;23.10;99.90;;;;;;4975526;28;20502;-62
2021/06/05 14:15:39;;;;;;;5.10;3.10;;;22.90;99.90;;;;;;4975083;28;20471;-69
2021/06/05 14:18:06;;;;;;;2.80;2.57;;;22.70;99.90;;;;;;4974906;28;20443;-63
2021/06/05 14:20:36;;;;;;;2.97;2.67;;;22.50;99.90;;;;;;4975761;28;20989;-64
2021/06/05 14:23:02;;;;;;;9.90;3.20;;;22.20;99.90;;;;;;4979049;28;20454;-62
2021/06/05 14:25:28;;;;;;;4.23;2.57;;;21.90;99.90;;;;;;4978698;28;20462;-62
2021/06/05 14:27:56;;;;;;;5.13;3.00;;;21.50;99.90;;;;;;4978545;28;20462;-61
2021/06/05 14:30:26;;;;;;;17.13;3.03;;;21.20;99.90;;;;;;4978353;28;20504;-63
2021/06/05 14:32:54;;;;;;;2.00;1.90;;;20.90;99.90;;;;;;4978449;28;20438;-61
2021/06/05 14:35:20;;;;;;;2.50;2.30;;;20.40;99.90;;;;;;4978208;28;20465;-63
2021/06/05 14:37:47;;;;;;;3.60;2.57;;;20.20;99.90;;;;;;4977947;28;20865;-62
2021/06/05 14:40:15;;;;;;;2.67;2.13;;;20.00;99.90;;;;;;4978523;28;20489;-63
2021/06/05 14:42:41;;;;;;;2.30;1.93;;;19.80;99.90;;;;;;4978079;28;20478;-62
2021/06/05 14:45:10;;;;;;;1.67;1.57;;;19.60;99.90;;;;;;4978089;28;20458;-62
2021/06/05 14:47:36;;;;;;;2.43;1.10;;;19.50;99.90;;;;;;4978068;28;20469;-62
2021/06/05 14:50:05;;;;;;;2.23;0.90;;;19.40;99.90;;;;;;4978180;28;20458;-62
2021/06/05 14:52:31;;;;;;;1.30;0.80;;;19.20;99.90;;;;;;4978207;28;20475;-63
2021/06/05 14:54:57;;;;;;;2.33;0.97;;;19.10;99.90;;;;;;4978035;28;20478;-62
2021/06/05 14:57:23;;;;;;;6.73;1.20;;;19.10;99.90;;;;;;4977607;28;20748;-63
2021/06/05 14:59:50;;;;;;;1.37;1.27;;;19.10;99.90;;;;;;4977834;28;20462;-63
2021/06/05 15:02:18;;;;;;;1.53;1.00;;;19.10;99.90;;;;;;4977485;28;20486;-63
2021/06/05 15:04:45;;;;;;;1.20;1.10;;;19.10;99.90;;;;;;4989523;28;20516;-63
2021/06/05 15:07:12;;;;;;;1.70;1.60;;;19.00;99.90;;;;;;4990327;28;20469;-63
2021/06/05 15:09:39;;;;;;;1.63;1.20;;;19.10;99.90;;;;;;4986396;28;20457;-62
2021/06/05 15:12:06;;;;;;;1.10;1.10;;;19.10;99.90;;;;;;4985243;28;20478;-63
2021/06/05 15:14:33;;;;;;;1.40;1.40;;;19.20;99.90;;;;;;4977831;28;21008;-62
2021/06/05 15:16:59;;;;;;;1.33;1.33;;;19.20;99.90;;;;;;4978024;28;20458;-63
2021/06/05 15:19:25;;;;;;;1.57;1.47;;;19.20;99.90;;;;;;4977830;28;20455;-62
2021/06/05 15:21:52;;;;;;;1.20;1.10;;;19.20;99.90;;;;;;4977499;28;20482;-62
2021/06/05 15:24:19;;;;;;;2.63;1.30;;;19.30;99.90;;;;;;4977678;28;20455;-62
2021/06/05 15:26:45;;;;;;;1.50;1.40;;;19.40;99.90;;;;;;4977058;28;20965;-62
2021/06/05 15:29:12;;;;;;;2.47;1.23;;;19.40;99.90;;;;;;4977272;28;20455;-62
2021/06/05 15:31:38;;;;;;;1.67;1.50;;;19.60;99.90;;;;;;4976189;28;20474;-62
2021/06/05 15:34:04;;;;;;;1.47;1.47;;;19.60;99.90;;;;;;4977026;28;20582;-62
2021/06/05 15:36:31;;;;;;;1.37;1.37;;;19.60;99.90;;;;;;4976819;28;20465;-62
2021/06/05 15:38:57;;;;;;;1.20;1.20;;;19.60;99.90;;;;;;4976820;28;20461;-63
2021/06/05 15:41:27;;;;;;;2.97;1.53;;;19.60;99.90;;;;;;4976866;28;20489;-64
2021/06/05 15:43:53;;;;;;;1.60;1.50;;;19.70;99.90;;;;;;4977104;28;20439;-62
2021/06/05 15:46:20;;;;;;;1.60;1.50;;;19.70;99.90;;;;;;4976980;28;20485;-62
2021/06/05 15:48:49;;;;;;;1.60;1.50;;;19.80;99.90;;;;;;4976980;28;20438;-63
2021/06/05 15:51:18;;;;;;;1.57;1.50;;;19.90;99.90;;;;;;4976835;28;20481;-62
2021/06/05 15:53:45;;;;;;;1.93;1.80;;;19.90;99.90;;;;;;4976864;28;20462;-63
2021/06/05 15:56:14;;;;;;;1.17;1.17;;;19.90;99.90;;;;;;4976956;28;20462;-63
2021/06/05 15:58:42;;;;;;;2.30;2.10;;;19.80;99.90;;;;;;4977176;28;20463;-63
2021/06/05 16:01:09;;;;;;;3.70;1.50;;;19.80;99.90;;;;;;4976439;28;21001;-63
2021/06/05 16:03:36;;;;;;;2.40;1.90;;;19.80;99.90;;;;;;4976685;28;20454;-64
2021/06/05 16:06:03;;;;;;;2.40;2.30;;;19.70;99.90;;;;;;4976267;28;20972;-63
2021/06/05 16:08:30;;;;;;;2.77;2.67;;;19.70;99.90;;;;;;4979219;28;20454;-61
2021/06/05 16:10:57;;;;;;;4.03;3.70;;;19.80;99.90;;;;;;4978867;28;20474;-61
2021/06/05 16:13:24;;;;;;;3.73;3.43;;;19.60;99.90;;;;;;4977243;28;20536;-63
2021/06/05 16:15:54;;;;;;;3.87;3.67;;;19.60;99.90;;;;;;4976412;28;20451;-63
2021/06/05 16:18:23;;;;;;;4.10;3.80;;;19.70;99.90;;;;;;4976317;28;20435;-63
2021/06/05 16:20:50;;;;;;;5.23;4.60;;;19.60;99.90;;;;;;4976217;28;20483;-64
2021/06/05 16:23:17;;;;;;;4.90;4.50;;;19.50;99.90;;;;;;4976773;28;20454;-73
2021/06/05 16:25:43;;;;;;;3.07;2.90;;;19.50;99.90;;;;;;4976276;28;20447;-66
2021/06/05 16:28:10;;;;;;;2.87;2.57;;;19.40;99.90;;;;;;4976131;28;20454;-64
2021/06/05 16:30:37;;;;;;;2.63;2.40;;;19.50;99.90;;;;;;4975811;28;20918;-63
2021/06/05 16:33:07;;;;;;;3.20;2.90;;;19.50;99.90;;;;;;4975754;28;20439;-63
2021/06/05 16:35:35;;;;;;;2.97;2.77;;;19.50;99.90;;;;;;4976010;28;20450;-63
2021/06/05 16:38:02;;;;;;;3.90;3.00;;;19.60;99.90;;;;;;4975789;28;20446;-62
2021/06/05 16:40:29;;;;;;;4.23;3.93;;;19.80;99.90;;;;;;4975960;28;20825;-63
2021/06/05 16:42:55;;;;;;;3.30;3.10;;;19.80;99.90;;;;;;4975472;28;20942;-63
2021/06/05 16:45:24;;;;;;;3.07;2.87;;;19.90;99.90;;;;;;4975924;28;20831;-62
2021/06/05 16:47:52;;;;;;;4.23;3.93;;;20.00;99.90;;;;;;4977370;28;20455;-63
2021/06/05 16:50:23;;;;;;;5.30;4.90;;;20.00;99.90;;;;;;4976156;28;20942;-62
2021/06/05 16:52:49;;;;;;;3.40;3.20;;;20.10;99.90;;;;;;4976000;28;20937;-63
2021/06/05 16:55:16;;;;;;;3.80;3.60;;;20.20;99.90;;;;;;4976178;28;20447;-63
2021/06/05 16:57:43;;;;;;;3.77;3.40;;;20.30;99.90;;;;;;4976263;28;20586;-63
2021/06/05 17:00:13;;;;;;;4.10;3.80;;;20.40;99.90;;;;;;4975954;28;20459;-63
2021/06/05 17:02:39;;;;;;;3.30;3.20;;;20.50;99.90;;;;;;4975848;28;20486;-62